sensor_id;sensor_type;location;lat;lon;timestamp;P1;durP1;ratioP1;P2;durP2;ratioP2
11877;SDS011;5998;42.676;23.268;2022-09-24T00:02:16;9.00;;;7.53;;
11877;SDS011;5998;42.676;23.268;2022-09-24T00:04:43;9.83;;;7.33;;
11877;SDS011;5998;42.676;23.268;2022-09-24T00:07:09;8.47;;;7.20;;
11877;SDS011;5998;42.676;23.268;2022-09-24T00:09:38;8.30;;;6.90;;
11877;SDS011;5998;42.676;23.268;2022-09-24T00:12:05;8.07;;;6.93;;
11877;SDS011;5998;42.676;23.268;2022-09-24T00:14:32;13.07;;;7.47;;
11877;SDS011;5998;42.676;23.268;2022-09-24T00:16:58;11.20;;;7.43;;
11877;SDS011;5998;42.676;23.268;2022-09-24T00:19:25;12.63;;;8.13;;
11877;SDS011;5998;42.676;23.268;2022-09-24T00:21:52;10.07;;;7.73;;
11877;SDS011;5998;42.676;23.268;2022-09-24T00:24:19;9.93;;;8.00;;
11877;SDS011;5998;42.676;23.268;2022-09-24T00:27:04;11.17;;;7.87;;
11877;SDS011;5998;42.676;23.268;2022-09-24T00:29:32;12.27;;;8.77;;
11877;SDS011;5998;42.676;23.268;2022-09-24T00:31:59;10.10;;;7.37;;
11877;SDS011;5998;42.676;23.268;2022-09-24T00:34:26;13.57;;;8.60;;
11877;SDS011;5998;42.676;23.268;2022-09-24T00:36:54;10.23;;;7.60;;
11877;SDS011;5998;42.676;23.268;2022-09-24T00:39:21;11.53;;;8.27;;
11877;SDS011;5998;42.676;23.268;2022-09-24T00:41:47;9.87;;;8.20;;
11877;SDS011;5998;42.676;23.268;2022-09-24T00:47:21;12.63;;;8.40;;
11877;SDS011;5998;42.676;23.268;2022-09-24T00:50:15;10.97;;;8.57;;
11877;SDS011;5998;42.676;23.268;2022-09-24T00:52:45;11.70;;;8.23;;
11877;SDS011;5998;42.676;23.268;2022-09-24T00:55:15;13.47;;;9.47;;
11877;SDS011;5998;42.676;23.268;2022-09-24T00:57:44;11.50;;;9.47;;
11877;SDS011;5998;42.676;23.268;2022-09-24T01:00:13;12.87;;;9.97;;
11877;SDS011;5998;42.676;23.268;2022-09-24T01:02:42;10.67;;;9.00;;
11877;SDS011;5998;42.676;23.268;2022-09-24T01:05:12;13.03;;;9.97;;
11877;SDS011;5998;42.676;23.268;2022-09-24T01:07:38;10.97;;;9.10;;
11877;SDS011;5998;42.676;23.268;2022-09-24T01:10:05;11.10;;;9.17;;
11877;SDS011;5998;42.676;23.268;2022-09-24T01:12:34;13.97;;;10.00;;
11877;SDS011;5998;42.676;23.268;2022-09-24T01:15:14;16.13;;;9.63;;
11877;SDS011;5998;42.676;23.268;2022-09-24T01:17:51;11.30;;;9.83;;
11877;SDS011;5998;42.676;23.268;2022-09-24T01:20:31;11.40;;;9.40;;
11877;SDS011;5998;42.676;23.268;2022-09-24T01:23:23;10.60;;;9.37;;
11877;SDS011;5998;42.676;23.268;2022-09-24T01:26:16;11.00;;;9.13;;
11877;SDS011;5998;42.676;23.268;2022-09-24T01:29:01;12.40;;;9.13;;
11877;SDS011;5998;42.676;23.268;2022-09-24T01:31:34;10.80;;;9.50;;
11877;SDS011;5998;42.676;23.268;2022-09-24T01:34:05;11.13;;;9.57;;
11877;SDS011;5998;42.676;23.268;2022-09-24T01:36:33;12.23;;;9.43;;
11877;SDS011;5998;42.676;23.268;2022-09-24T01:39:02;11.67;;;8.83;;
11877;SDS011;5998;42.676;23.268;2022-09-24T01:41:31;10.17;;;9.07;;
11877;SDS011;5998;42.676;23.268;2022-09-24T01:44:00;10.40;;;8.73;;
11877;SDS011;5998;42.676;23.268;2022-09-24T01:46:32;12.43;;;9.43;;
11877;SDS011;5998;42.676;23.268;2022-09-24T01:49:02;12.53;;;9.97;;
11877;SDS011;5998;42.676;23.268;2022-09-24T01:51:32;11.63;;;9.37;;
11877;SDS011;5998;42.676;23.268;2022-09-24T01:54:04;11.60;;;9.00;;
11877;SDS011;5998;42.676;23.268;2022-09-24T01:56:37;11.63;;;9.40;;
11877;SDS011;5998;42.676;23.268;2022-09-24T01:59:09;12.10;;;9.40;;
11877;SDS011;5998;42.676;23.268;2022-09-24T02:01:42;11.53;;;9.33;;
11877;SDS011;5998;42.676;23.268;2022-09-24T02:04:16;13.27;;;8.47;;
11877;SDS011;5998;42.676;23.268;2022-09-24T02:06:46;12.27;;;8.80;;
11877;SDS011;5998;42.676;23.268;2022-09-24T02:09:30;14.33;;;8.87;;
11877;SDS011;5998;42.676;23.268;2022-09-24T02:11:59;11.30;;;8.77;;
11877;SDS011;5998;42.676;23.268;2022-09-24T02:14:33;12.90;;;9.13;;
11877;SDS011;5998;42.676;23.268;2022-09-24T02:17:05;14.73;;;8.67;;
11877;SDS011;5998;42.676;23.268;2022-09-24T02:19:33;13.80;;;9.00;;
11877;SDS011;5998;42.676;23.268;2022-09-24T02:22:03;14.33;;;8.90;;
11877;SDS011;5998;42.676;23.268;2022-09-24T02:24:34;14.90;;;9.30;;
11877;SDS011;5998;42.676;23.268;2022-09-24T02:27:08;12.17;;;8.43;;
11877;SDS011;5998;42.676;23.268;2022-09-24T02:29:35;12.70;;;8.83;;
11877;SDS011;5998;42.676;23.268;2022-09-24T02:32:02;10.53;;;8.67;;
11877;SDS011;5998;42.676;23.268;2022-09-24T02:34:34;14.30;;;9.03;;
11877;SDS011;5998;42.676;23.268;2022-09-24T02:37:04;12.40;;;9.00;;
11877;SDS011;5998;42.676;23.268;2022-09-24T02:39:31;12.03;;;8.67;;
11877;SDS011;5998;42.676;23.268;2022-09-24T02:41:58;11.53;;;8.50;;
11877;SDS011;5998;42.676;23.268;2022-09-24T02:44:26;11.87;;;8.63;;
11877;SDS011;5998;42.676;23.268;2022-09-24T02:46:55;10.67;;;8.20;;
11877;SDS011;5998;42.676;23.268;2022-09-24T02:49:23;13.07;;;8.43;;
11877;SDS011;5998;42.676;23.268;2022-09-24T02:51:50;13.53;;;8.90;;
11877;SDS011;5998;42.676;23.268;2022-09-24T02:54:17;13.40;;;8.40;;
11877;SDS011;5998;42.676;23.268;2022-09-24T02:56:43;17.67;;;9.70;;
11877;SDS011;5998;42.676;23.268;2022-09-24T02:59:10;14.50;;;8.93;;
11877;SDS011;5998;42.676;23.268;2022-09-24T03:01:37;12.80;;;8.70;;
11877;SDS011;5998;42.676;23.268;2022-09-24T03:04:04;15.37;;;9.67;;
11877;SDS011;5998;42.676;23.268;2022-09-24T03:06:32;15.93;;;8.43;;
11877;SDS011;5998;42.676;23.268;2022-09-24T03:08:59;14.47;;;10.00;;
11877;SDS011;5998;42.676;23.268;2022-09-24T03:11:26;14.20;;;9.23;;
11877;SDS011;5998;42.676;23.268;2022-09-24T03:13:54;13.20;;;8.70;;
11877;SDS011;5998;42.676;23.268;2022-09-24T03:16:20;12.67;;;9.07;;
11877;SDS011;5998;42.676;23.268;2022-09-24T03:18:47;14.23;;;9.00;;
11877;SDS011;5998;42.676;23.268;2022-09-24T03:21:15;12.53;;;9.10;;
11877;SDS011;5998;42.676;23.268;2022-09-24T03:23:44;14.03;;;9.60;;
11877;SDS011;5998;42.676;23.268;2022-09-24T03:26:12;11.30;;;9.07;;
11877;SDS011;5998;42.676;23.268;2022-09-24T03:28:39;12.30;;;9.37;;
11877;SDS011;5998;42.676;23.268;2022-09-24T03:31:06;14.37;;;9.53;;
11877;SDS011;5998;42.676;23.268;2022-09-24T03:33:33;16.37;;;9.20;;
11877;SDS011;5998;42.676;23.268;2022-09-24T03:36:02;15.33;;;9.37;;
11877;SDS011;5998;42.676;23.268;2022-09-24T03:38:31;13.47;;;9.60;;
11877;SDS011;5998;42.676;23.268;2022-09-24T03:41:00;11.90;;;9.27;;
11877;SDS011;5998;42.676;23.268;2022-09-24T03:43:27;11.13;;;9.33;;
11877;SDS011;5998;42.676;23.268;2022-09-24T03:45:55;13.87;;;9.50;;
11877;SDS011;5998;42.676;23.268;2022-09-24T03:48:23;14.23;;;9.27;;
11877;SDS011;5998;42.676;23.268;2022-09-24T03:50:51;11.17;;;8.90;;
11877;SDS011;5998;42.676;23.268;2022-09-24T03:53:18;13.00;;;8.90;;
11877;SDS011;5998;42.676;23.268;2022-09-24T03:55:46;11.80;;;9.20;;
11877;SDS011;5998;42.676;23.268;2022-09-24T03:58:16;10.60;;;7.83;;
11877;SDS011;5998;42.676;23.268;2022-09-24T04:00:43;10.60;;;8.37;;
11877;SDS011;5998;42.676;23.268;2022-09-24T04:03:09;13.97;;;8.60;;
11877;SDS011;5998;42.676;23.268;2022-09-24T04:05:36;10.93;;;8.00;;
11877;SDS011;5998;42.676;23.268;2022-09-24T04:08:04;11.63;;;9.17;;
11877;SDS011;5998;42.676;23.268;2022-09-24T04:10:31;20.27;;;10.20;;
11877;SDS011;5998;42.676;23.268;2022-09-24T04:12:58;16.20;;;9.93;;
11877;SDS011;5998;42.676;23.268;2022-09-24T04:15:26;12.90;;;9.07;;
11877;SDS011;5998;42.676;23.268;2022-09-24T04:17:53;12.17;;;8.43;;
11877;SDS011;5998;42.676;23.268;2022-09-24T04:20:21;14.03;;;8.33;;
11877;SDS011;5998;42.676;23.268;2022-09-24T04:22:50;18.60;;;9.40;;
11877;SDS011;5998;42.676;23.268;2022-09-24T04:25:18;18.20;;;9.63;;
11877;SDS011;5998;42.676;23.268;2022-09-24T04:27:51;12.70;;;8.63;;
11877;SDS011;5998;42.676;23.268;2022-09-24T04:30:18;16.23;;;9.80;;
11877;SDS011;5998;42.676;23.268;2022-09-24T04:32:47;13.07;;;8.77;;
11877;SDS011;5998;42.676;23.268;2022-09-24T04:35:15;14.60;;;9.07;;
11877;SDS011;5998;42.676;23.268;2022-09-24T04:37:42;22.33;;;10.03;;
11877;SDS011;5998;42.676;23.268;2022-09-24T04:40:09;17.37;;;10.70;;
11877;SDS011;5998;42.676;23.268;2022-09-24T04:42:37;20.70;;;9.47;;
11877;SDS011;5998;42.676;23.268;2022-09-24T04:45:04;15.17;;;9.50;;
11877;SDS011;5998;42.676;23.268;2022-09-24T04:47:32;13.57;;;10.20;;
11877;SDS011;5998;42.676;23.268;2022-09-24T04:50:00;58.90;;;23.00;;
11877;SDS011;5998;42.676;23.268;2022-09-24T04:52:27;14.17;;;9.50;;
11877;SDS011;5998;42.676;23.268;2022-09-24T04:54:57;15.57;;;8.37;;
11877;SDS011;5998;42.676;23.268;2022-09-24T04:57:24;15.83;;;9.13;;
11877;SDS011;5998;42.676;23.268;2022-09-24T04:59:51;21.73;;;11.07;;
11877;SDS011;5998;42.676;23.268;2022-09-24T05:02:18;20.73;;;11.17;;
11877;SDS011;5998;42.676;23.268;2022-09-24T05:04:45;24.93;;;10.37;;
11877;SDS011;5998;42.676;23.268;2022-09-24T05:07:13;20.00;;;10.30;;
11877;SDS011;5998;42.676;23.268;2022-09-24T05:09:40;9.00;;;7.70;;
11877;SDS011;5998;42.676;23.268;2022-09-24T05:12:07;15.17;;;9.43;;
11877;SDS011;5998;42.676;23.268;2022-09-24T05:14:33;11.17;;;7.87;;
11877;SDS011;5998;42.676;23.268;2022-09-24T05:17:00;15.27;;;9.00;;
11877;SDS011;5998;42.676;23.268;2022-09-24T05:19:27;16.37;;;8.30;;
11877;SDS011;5998;42.676;23.268;2022-09-24T05:21:53;11.93;;;7.87;;
11877;SDS011;5998;42.676;23.268;2022-09-24T05:24:21;12.07;;;8.17;;
11877;SDS011;5998;42.676;23.268;2022-09-24T05:26:48;12.03;;;8.47;;
11877;SDS011;5998;42.676;23.268;2022-09-24T05:29:32;7.27;;;6.50;;
11877;SDS011;5998;42.676;23.268;2022-09-24T05:32:01;9.67;;;8.07;;
11877;SDS011;5998;42.676;23.268;2022-09-24T05:34:29;13.03;;;7.97;;
11877;SDS011;5998;42.676;23.268;2022-09-24T05:36:56;11.87;;;8.37;;
11877;SDS011;5998;42.676;23.268;2022-09-24T05:39:25;15.40;;;9.80;;
11877;SDS011;5998;42.676;23.268;2022-09-24T05:41:52;10.30;;;7.60;;
11877;SDS011;5998;42.676;23.268;2022-09-24T05:44:19;8.97;;;8.03;;
11877;SDS011;5998;42.676;23.268;2022-09-24T05:46:46;8.37;;;7.50;;
11877;SDS011;5998;42.676;23.268;2022-09-24T05:49:12;9.07;;;7.93;;
11877;SDS011;5998;42.676;23.268;2022-09-24T05:51:39;8.70;;;7.53;;
11877;SDS011;5998;42.676;23.268;2022-09-24T05:54:06;10.33;;;7.07;;
11877;SDS011;5998;42.676;23.268;2022-09-24T05:56:34;8.77;;;7.00;;
11877;SDS011;5998;42.676;23.268;2022-09-24T05:59:01;11.30;;;7.90;;
11877;SDS011;5998;42.676;23.268;2022-09-24T06:01:28;9.17;;;7.27;;
11877;SDS011;5998;42.676;23.268;2022-09-24T06:03:55;13.23;;;8.10;;
11877;SDS011;5998;42.676;23.268;2022-09-24T06:06:21;9.73;;;7.53;;
11877;SDS011;5998;42.676;23.268;2022-09-24T06:08:48;9.30;;;7.10;;
11877;SDS011;5998;42.676;23.268;2022-09-24T06:11:15;8.33;;;7.47;;
11877;SDS011;5998;42.676;23.268;2022-09-24T06:13:44;10.20;;;7.83;;
11877;SDS011;5998;42.676;23.268;2022-09-24T06:16:11;9.30;;;7.53;;
11877;SDS011;5998;42.676;23.268;2022-09-24T06:18:39;10.80;;;7.67;;
11877;SDS011;5998;42.676;23.268;2022-09-24T06:21:07;9.00;;;7.70;;
11877;SDS011;5998;42.676;23.268;2022-09-24T06:23:36;11.20;;;8.20;;
11877;SDS011;5998;42.676;23.268;2022-09-24T06:26:04;8.93;;;7.80;;
11877;SDS011;5998;42.676;23.268;2022-09-24T06:28:32;9.30;;;7.93;;
11877;SDS011;5998;42.676;23.268;2022-09-24T06:31:00;10.17;;;8.03;;
11877;SDS011;5998;42.676;23.268;2022-09-24T06:33:27;9.60;;;7.53;;
11877;SDS011;5998;42.676;23.268;2022-09-24T06:35:57;11.70;;;8.10;;
11877;SDS011;5998;42.676;23.268;2022-09-24T06:38:25;9.10;;;7.87;;
11877;SDS011;5998;42.676;23.268;2022-09-24T06:40:56;8.57;;;7.00;;
11877;SDS011;5998;42.676;23.268;2022-09-24T06:43:24;8.50;;;7.40;;
11877;SDS011;5998;42.676;23.268;2022-09-24T06:45:53;9.40;;;7.00;;
11877;SDS011;5998;42.676;23.268;2022-09-24T06:48:22;8.27;;;7.13;;
11877;SDS011;5998;42.676;23.268;2022-09-24T06:50:49;8.70;;;6.43;;
11877;SDS011;5998;42.676;23.268;2022-09-24T06:53:15;12.37;;;6.77;;
11877;SDS011;5998;42.676;23.268;2022-09-24T06:55:42;8.17;;;6.93;;
11877;SDS011;5998;42.676;23.268;2022-09-24T06:58:09;8.93;;;7.20;;
11877;SDS011;5998;42.676;23.268;2022-09-24T07:00:37;10.13;;;7.80;;
11877;SDS011;5998;42.676;23.268;2022-09-24T07:03:04;8.37;;;7.30;;
11877;SDS011;5998;42.676;23.268;2022-09-24T07:05:33;9.03;;;7.67;;
11877;SDS011;5998;42.676;23.268;2022-09-24T07:08:00;9.53;;;7.67;;
11877;SDS011;5998;42.676;23.268;2022-09-24T07:10:27;9.03;;;8.13;;
11877;SDS011;5998;42.676;23.268;2022-09-24T07:12:55;11.40;;;8.13;;
11877;SDS011;5998;42.676;23.268;2022-09-24T07:15:21;8.67;;;7.77;;
11877;SDS011;5998;42.676;23.268;2022-09-24T07:17:52;12.13;;;7.87;;
11877;SDS011;5998;42.676;23.268;2022-09-24T07:20:20;9.33;;;8.00;;
11877;SDS011;5998;42.676;23.268;2022-09-24T07:22:48;11.73;;;8.40;;
11877;SDS011;5998;42.676;23.268;2022-09-24T07:25:15;9.20;;;8.10;;
11877;SDS011;5998;42.676;23.268;2022-09-24T07:27:41;12.03;;;8.60;;
11877;SDS011;5998;42.676;23.268;2022-09-24T07:30:10;10.60;;;8.00;;
11877;SDS011;5998;42.676;23.268;2022-09-24T07:32:37;11.83;;;7.63;;
11877;SDS011;5998;42.676;23.268;2022-09-24T07:35:04;9.80;;;7.90;;
11877;SDS011;5998;42.676;23.268;2022-09-24T07:37:31;13.73;;;8.97;;
11877;SDS011;5998;42.676;23.268;2022-09-24T07:40:00;12.53;;;8.10;;
11877;SDS011;5998;42.676;23.268;2022-09-24T07:42:27;10.60;;;8.43;;
11877;SDS011;5998;42.676;23.268;2022-09-24T07:44:54;10.37;;;9.10;;
11877;SDS011;5998;42.676;23.268;2022-09-24T07:47:21;9.57;;;8.67;;
11877;SDS011;5998;42.676;23.268;2022-09-24T07:49:48;10.57;;;7.30;;
11877;SDS011;5998;42.676;23.268;2022-09-24T07:52:14;9.90;;;8.20;;
11877;SDS011;5998;42.676;23.268;2022-09-24T07:54:41;10.30;;;8.37;;
11877;SDS011;5998;42.676;23.268;2022-09-24T07:57:10;9.03;;;7.53;;
11877;SDS011;5998;42.676;23.268;2022-09-24T07:59:37;11.87;;;8.37;;
11877;SDS011;5998;42.676;23.268;2022-09-24T08:02:07;10.27;;;8.50;;
11877;SDS011;5998;42.676;23.268;2022-09-24T08:04:40;12.23;;;9.00;;
11877;SDS011;5998;42.676;23.268;2022-09-24T08:07:07;9.60;;;7.50;;
11877;SDS011;5998;42.676;23.268;2022-09-24T08:09:33;9.10;;;8.20;;
11877;SDS011;5998;42.676;23.268;2022-09-24T08:12:00;9.60;;;8.40;;
11877;SDS011;5998;42.676;23.268;2022-09-24T08:14:28;8.70;;;7.90;;
11877;SDS011;5998;42.676;23.268;2022-09-24T08:16:55;9.60;;;8.60;;
11877;SDS011;5998;42.676;23.268;2022-09-24T08:19:22;12.70;;;8.70;;
11877;SDS011;5998;42.676;23.268;2022-09-24T08:21:49;9.70;;;8.70;;
11877;SDS011;5998;42.676;23.268;2022-09-24T08:24:16;16.30;;;8.37;;
11877;SDS011;5998;42.676;23.268;2022-09-24T08:26:42;8.43;;;7.10;;
11877;SDS011;5998;42.676;23.268;2022-09-24T08:29:09;9.17;;;8.07;;
11877;SDS011;5998;42.676;23.268;2022-09-24T08:31:37;15.20;;;8.37;;
11877;SDS011;5998;42.676;23.268;2022-09-24T08:34:06;12.30;;;7.97;;
11877;SDS011;5998;42.676;23.268;2022-09-24T08:36:32;11.00;;;8.47;;
11877;SDS011;5998;42.676;23.268;2022-09-24T08:38:59;10.80;;;8.33;;
11877;SDS011;5998;42.676;23.268;2022-09-24T08:41:29;11.43;;;8.70;;
11877;SDS011;5998;42.676;23.268;2022-09-24T08:44:15;9.53;;;8.33;;
11877;SDS011;5998;42.676;23.268;2022-09-24T08:47:19;10.97;;;8.17;;
11877;SDS011;5998;42.676;23.268;2022-09-24T08:49:59;10.10;;;7.17;;
11877;SDS011;5998;42.676;23.268;2022-09-24T08:52:38;7.80;;;6.97;;
11877;SDS011;5998;42.676;23.268;2022-09-24T08:55:16;10.00;;;8.30;;
11877;SDS011;5998;42.676;23.268;2022-09-24T08:57:48;11.50;;;6.93;;
11877;SDS011;5998;42.676;23.268;2022-09-24T09:00:23;12.27;;;8.20;;
11877;SDS011;5998;42.676;23.268;2022-09-24T09:02:54;9.17;;;8.20;;
11877;SDS011;5998;42.676;23.268;2022-09-24T09:05:30;9.90;;;7.90;;
11877;SDS011;5998;42.676;23.268;2022-09-24T09:08:16;8.00;;;6.63;;
11877;SDS011;5998;42.676;23.268;2022-09-24T09:10:48;10.53;;;7.17;;
11877;SDS011;5998;42.676;23.268;2022-09-24T09:13:25;8.40;;;7.47;;
11877;SDS011;5998;42.676;23.268;2022-09-24T09:15:58;11.73;;;7.13;;
11877;SDS011;5998;42.676;23.268;2022-09-24T09:18:32;9.27;;;7.27;;
11877;SDS011;5998;42.676;23.268;2022-09-24T09:21:05;10.00;;;7.10;;
11877;SDS011;5998;42.676;23.268;2022-09-24T09:23:40;8.53;;;7.33;;
11877;SDS011;5998;42.676;23.268;2022-09-24T09:26:12;12.13;;;7.30;;
11877;SDS011;5998;42.676;23.268;2022-09-24T09:28:39;9.67;;;7.10;;
11877;SDS011;5998;42.676;23.268;2022-09-24T09:31:06;8.70;;;7.23;;
11877;SDS011;5998;42.676;23.268;2022-09-24T09:33:47;11.40;;;7.63;;
11877;SDS011;5998;42.676;23.268;2022-09-24T09:36:33;10.77;;;6.63;;
11877;SDS011;5998;42.676;23.268;2022-09-24T09:39:16;9.80;;;7.00;;
11877;SDS011;5998;42.676;23.268;2022-09-24T09:41:55;7.50;;;6.67;;
11877;SDS011;5998;42.676;23.268;2022-09-24T09:44:29;9.67;;;6.80;;
11877;SDS011;5998;42.676;23.268;2022-09-24T09:47:03;7.27;;;5.90;;
11877;SDS011;5998;42.676;23.268;2022-09-24T09:49:38;7.10;;;5.87;;
11877;SDS011;5998;42.676;23.268;2022-09-24T09:52:10;7.40;;;6.17;;
11877;SDS011;5998;42.676;23.268;2022-09-24T09:54:40;7.87;;;5.67;;
11877;SDS011;5998;42.676;23.268;2022-09-24T09:57:11;3.70;;;3.17;;
11877;SDS011;5998;42.676;23.268;2022-09-24T09:59:41;2.70;;;2.50;;
11877;SDS011;5998;42.676;23.268;2022-09-24T10:02:14;3.90;;;2.10;;
11877;SDS011;5998;42.676;23.268;2022-09-24T10:04:50;2.90;;;2.70;;
11877;SDS011;5998;42.676;23.268;2022-09-24T10:07:18;3.53;;;2.93;;
11877;SDS011;5998;42.676;23.268;2022-09-24T10:09:45;4.80;;;3.63;;
11877;SDS011;5998;42.676;23.268;2022-09-24T10:12:14;3.00;;;2.70;;
11877;SDS011;5998;42.676;23.268;2022-09-24T10:14:42;3.40;;;3.10;;
11877;SDS011;5998;42.676;23.268;2022-09-24T10:17:11;2.53;;;2.33;;
11877;SDS011;5998;42.676;23.268;2022-09-24T10:19:40;3.10;;;2.10;;
11877;SDS011;5998;42.676;23.268;2022-09-24T10:22:13;3.63;;;2.07;;
11877;SDS011;5998;42.676;23.268;2022-09-24T10:24:45;4.20;;;2.43;;
11877;SDS011;5998;42.676;23.268;2022-09-24T10:27:13;5.73;;;2.10;;
11877;SDS011;5998;42.676;23.268;2022-09-24T10:29:50;3.67;;;2.30;;
11877;SDS011;5998;42.676;23.268;2022-09-24T10:32:39;2.80;;;2.07;;
11877;SDS011;5998;42.676;23.268;2022-09-24T10:35:18;2.20;;;2.10;;
11877;SDS011;5998;42.676;23.268;2022-09-24T10:37:52;2.13;;;1.93;;
11877;SDS011;5998;42.676;23.268;2022-09-24T10:40:21;4.73;;;2.23;;
11877;SDS011;5998;42.676;23.268;2022-09-24T10:42:58;2.90;;;1.90;;
11877;SDS011;5998;42.676;23.268;2022-09-24T10:45:46;2.00;;;1.90;;
11877;SDS011;5998;42.676;23.268;2022-09-24T10:48:26;2.30;;;2.10;;
11877;SDS011;5998;42.676;23.268;2022-09-24T10:51:00;2.60;;;2.20;;
11877;SDS011;5998;42.676;23.268;2022-09-24T10:53:41;3.57;;;2.40;;
11877;SDS011;5998;42.676;23.268;2022-09-24T10:56:19;2.73;;;2.30;;
11877;SDS011;5998;42.676;23.268;2022-09-24T10:59:01;2.87;;;2.67;;
11877;SDS011;5998;42.676;23.268;2022-09-24T11:01:41;2.67;;;2.07;;
11877;SDS011;5998;42.676;23.268;2022-09-24T11:04:18;2.50;;;2.30;;
11877;SDS011;5998;42.676;23.268;2022-09-24T11:06:56;3.00;;;1.90;;
11877;SDS011;5998;42.676;23.268;2022-09-24T11:09:45;2.30;;;2.20;;
11877;SDS011;5998;42.676;23.268;2022-09-24T11:12:20;2.20;;;2.00;;
11877;SDS011;5998;42.676;23.268;2022-09-24T11:15:00;2.57;;;2.37;;
11877;SDS011;5998;42.676;23.268;2022-09-24T11:17:36;2.50;;;2.30;;
11877;SDS011;5998;42.676;23.268;2022-09-24T11:20:19;2.70;;;2.20;;
11877;SDS011;5998;42.676;23.268;2022-09-24T11:23:01;3.23;;;2.00;;
11877;SDS011;5998;42.676;23.268;2022-09-24T11:25:47;2.20;;;2.10;;
11877;SDS011;5998;42.676;23.268;2022-09-24T11:28:26;3.90;;;2.10;;
11877;SDS011;5998;42.676;23.268;2022-09-24T11:31:04;3.60;;;2.20;;
11877;SDS011;5998;42.676;23.268;2022-09-24T11:33:50;1.97;;;1.87;;
11877;SDS011;5998;42.676;23.268;2022-09-24T11:36:29;3.10;;;2.10;;
11877;SDS011;5998;42.676;23.268;2022-09-24T11:39:16;4.47;;;2.30;;
11877;SDS011;5998;42.676;23.268;2022-09-24T11:41:56;2.83;;;2.63;;
11877;SDS011;5998;42.676;23.268;2022-09-24T11:44:49;2.23;;;2.03;;
11877;SDS011;5998;42.676;23.268;2022-09-24T11:47:33;2.33;;;2.20;;
11877;SDS011;5998;42.676;23.268;2022-09-24T11:50:16;5.43;;;2.50;;
11877;SDS011;5998;42.676;23.268;2022-09-24T11:52:55;2.33;;;2.13;;
11877;SDS011;5998;42.676;23.268;2022-09-24T11:55:28;2.23;;;2.00;;
11877;SDS011;5998;42.676;23.268;2022-09-24T11:58:03;2.27;;;1.90;;
11877;SDS011;5998;42.676;23.268;2022-09-24T12:00:39;2.37;;;2.17;;
11877;SDS011;5998;42.676;23.268;2022-09-24T12:03:13;2.57;;;2.37;;
11877;SDS011;5998;42.676;23.268;2022-09-24T12:05:46;2.17;;;2.00;;
11877;SDS011;5998;42.676;23.268;2022-09-24T12:08:19;2.13;;;1.93;;
11877;SDS011;5998;42.676;23.268;2022-09-24T12:10:53;2.00;;;1.90;;
11877;SDS011;5998;42.676;23.268;2022-09-24T12:13:27;3.90;;;2.10;;
11877;SDS011;5998;42.676;23.268;2022-09-24T12:15:59;2.37;;;2.20;;
11877;SDS011;5998;42.676;23.268;2022-09-24T12:18:33;2.27;;;2.07;;
11877;SDS011;5998;42.676;23.268;2022-09-24T12:21:03;1.90;;;1.80;;
11877;SDS011;5998;42.676;23.268;2022-09-24T12:23:36;2.10;;;2.00;;
11877;SDS011;5998;42.676;23.268;2022-09-24T12:26:05;2.60;;;2.33;;
11877;SDS011;5998;42.676;23.268;2022-09-24T12:28:37;2.93;;;2.10;;
11877;SDS011;5998;42.676;23.268;2022-09-24T12:31:27;2.60;;;2.00;;
11877;SDS011;5998;42.676;23.268;2022-09-24T12:34:18;2.30;;;2.13;;
11877;SDS011;5998;42.676;23.268;2022-09-24T12:36:54;2.67;;;2.47;;
11877;SDS011;5998;42.676;23.268;2022-09-24T12:39:26;2.43;;;2.23;;
11877;SDS011;5998;42.676;23.268;2022-09-24T12:41:57;3.20;;;2.30;;
11877;SDS011;5998;42.676;23.268;2022-09-24T12:44:30;3.50;;;2.40;;
11877;SDS011;5998;42.676;23.268;2022-09-24T12:47:01;2.20;;;2.10;;
11877;SDS011;5998;42.676;23.268;2022-09-24T12:49:29;3.00;;;2.00;;
11877;SDS011;5998;42.676;23.268;2022-09-24T12:51:59;2.70;;;1.90;;
11877;SDS011;5998;42.676;23.268;2022-09-24T12:54:29;2.50;;;1.77;;
11877;SDS011;5998;42.676;23.268;2022-09-24T12:57:05;2.37;;;2.17;;
11877;SDS011;5998;42.676;23.268;2022-09-24T12:59:44;2.40;;;2.20;;
11877;SDS011;5998;42.676;23.268;2022-09-24T13:02:13;2.20;;;2.10;;
11877;SDS011;5998;42.676;23.268;2022-09-24T13:04:43;5.00;;;2.67;;
11877;SDS011;5998;42.676;23.268;2022-09-24T13:07:27;2.40;;;2.20;;
11877;SDS011;5998;42.676;23.268;2022-09-24T13:09:55;2.20;;;2.10;;
11877;SDS011;5998;42.676;23.268;2022-09-24T13:12:22;4.23;;;2.00;;
11877;SDS011;5998;42.676;23.268;2022-09-24T13:14:59;3.37;;;2.10;;
11877;SDS011;5998;42.676;23.268;2022-09-24T13:17:28;2.40;;;2.20;;
11877;SDS011;5998;42.676;23.268;2022-09-24T13:19:57;2.80;;;2.20;;
11877;SDS011;5998;42.676;23.268;2022-09-24T13:22:26;2.70;;;2.00;;
11877;SDS011;5998;42.676;23.268;2022-09-24T13:25:13;3.33;;;2.30;;
11877;SDS011;5998;42.676;23.268;2022-09-24T13:27:54;2.03;;;1.93;;
11877;SDS011;5998;42.676;23.268;2022-09-24T13:30:25;4.23;;;2.10;;
11877;SDS011;5998;42.676;23.268;2022-09-24T13:33:00;3.00;;;2.70;;
11877;SDS011;5998;42.676;23.268;2022-09-24T13:35:33;2.20;;;2.10;;
11877;SDS011;5998;42.676;23.268;2022-09-24T13:38:15;2.43;;;2.27;;
11877;SDS011;5998;42.676;23.268;2022-09-24T13:40:47;4.03;;;2.10;;
11877;SDS011;5998;42.676;23.268;2022-09-24T13:43:24;2.10;;;2.00;;
11877;SDS011;5998;42.676;23.268;2022-09-24T13:46:05;2.83;;;2.13;;
11877;SDS011;5998;42.676;23.268;2022-09-24T13:48:37;2.50;;;2.30;;
11877;SDS011;5998;42.676;23.268;2022-09-24T13:51:10;5.77;;;2.10;;
11877;SDS011;5998;42.676;23.268;2022-09-24T13:53:39;1.90;;;1.80;;
11877;SDS011;5998;42.676;23.268;2022-09-24T13:56:11;2.80;;;2.10;;
11877;SDS011;5998;42.676;23.268;2022-09-24T13:58:39;3.30;;;2.03;;
11877;SDS011;5998;42.676;23.268;2022-09-24T14:01:11;2.20;;;2.00;;
11877;SDS011;5998;42.676;23.268;2022-09-24T14:03:40;2.90;;;2.70;;
11877;SDS011;5998;42.676;23.268;2022-09-24T14:06:17;5.50;;;2.40;;
11877;SDS011;5998;42.676;23.268;2022-09-24T14:08:47;3.57;;;2.50;;
11877;SDS011;5998;42.676;23.268;2022-09-24T14:11:17;4.23;;;3.10;;
11877;SDS011;5998;42.676;23.268;2022-09-24T14:13:45;3.50;;;2.60;;
11877;SDS011;5998;42.676;23.268;2022-09-24T14:16:14;4.90;;;2.87;;
11877;SDS011;5998;42.676;23.268;2022-09-24T14:18:43;5.30;;;3.43;;
11877;SDS011;5998;42.676;23.268;2022-09-24T14:21:10;2.50;;;2.30;;
11877;SDS011;5998;42.676;23.268;2022-09-24T14:23:46;3.13;;;2.40;;
11877;SDS011;5998;42.676;23.268;2022-09-24T14:26:19;3.27;;;2.17;;
11877;SDS011;5998;42.676;23.268;2022-09-24T14:28:51;5.60;;;2.20;;
11877;SDS011;5998;42.676;23.268;2022-09-24T14:31:20;3.13;;;2.83;;
11877;SDS011;5998;42.676;23.268;2022-09-24T14:33:47;2.20;;;2.10;;
11877;SDS011;5998;42.676;23.268;2022-09-24T14:36:14;2.87;;;2.53;;
11877;SDS011;5998;42.676;23.268;2022-09-24T14:38:46;4.77;;;2.90;;
11877;SDS011;5998;42.676;23.268;2022-09-24T14:41:19;7.40;;;3.73;;
11877;SDS011;5998;42.676;23.268;2022-09-24T14:43:49;4.20;;;2.53;;
11877;SDS011;5998;42.676;23.268;2022-09-24T14:46:21;3.50;;;2.43;;
11877;SDS011;5998;42.676;23.268;2022-09-24T14:48:51;4.47;;;2.50;;
11877;SDS011;5998;42.676;23.268;2022-09-24T14:51:24;3.23;;;2.67;;
11877;SDS011;5998;42.676;23.268;2022-09-24T14:53:56;4.27;;;2.23;;
11877;SDS011;5998;42.676;23.268;2022-09-24T14:56:25;8.40;;;2.90;;
11877;SDS011;5998;42.676;23.268;2022-09-24T14:58:54;2.67;;;2.47;;
11877;SDS011;5998;42.676;23.268;2022-09-24T15:01:22;6.13;;;2.57;;
11877;SDS011;5998;42.676;23.268;2022-09-24T15:03:55;9.73;;;3.47;;
11877;SDS011;5998;42.676;23.268;2022-09-24T15:06:25;6.77;;;2.90;;
11877;SDS011;5998;42.676;23.268;2022-09-24T15:08:57;3.00;;;2.80;;